createdAt,value
2017-11-27T09:23:03.547Z,10
2017-11-27T09:23:16.687Z,10
2017-11-27T09:23:29.835Z,10
2017-11-27T09:23:42.487Z,10
2017-11-27T09:23:55.632Z,10
2017-11-27T09:24:08.304Z,10
2017-11-27T09:24:21.467Z,10
2017-11-27T09:24:34.158Z,10
2017-11-27T09:24:46.830Z,10
2017-11-27T09:24:59.514Z,10
2017-11-27T09:25:12.209Z,15
2017-11-27T09:25:25.386Z,15
2017-11-27T09:25:38.504Z,15
2017-11-27T09:25:51.171Z,15
2017-11-27T09:26:03.884Z,15
2017-11-27T09:26:16.502Z,15
2017-11-27T09:26:29.644Z,15
2017-11-27T09:26:42.307Z,15
2017-11-27T09:26:55.418Z,15
2017-11-27T09:27:08.547Z,15
2017-11-27T09:27:21.672Z,15
2017-11-27T09:27:34.842Z,15
2017-11-27T09:27:47.985Z,15
2017-11-27T09:28:00.582Z,15
2017-11-27T09:28:13.761Z,15
2017-11-27T09:28:26.876Z,15
2017-11-27T09:28:39.536Z,15
2017-11-27T09:28:52.650Z,15
2017-11-27T09:29:05.842Z,15
2017-11-27T09:29:19.000Z,10
2017-11-27T09:29:32.144Z,10
2017-11-27T09:29:44.843Z,10
2017-11-27T09:29:57.912Z,10
2017-11-27T09:30:10.585Z,10
2017-11-27T09:30:23.279Z,10
2017-11-27T09:30:36.397Z,10
2017-11-27T09:30:49.508Z,10
2017-11-27T09:31:02.704Z,10
2017-11-27T09:31:15.849Z,10
2017-11-27T09:31:28.956Z,10
2017-11-27T09:31:41.595Z,10
2017-11-27T09:31:54.699Z,10
2017-11-27T09:32:07.802Z,10
2017-11-27T09:32:19.940Z,10
2017-11-27T09:32:32.593Z,10
2017-11-27T09:32:45.270Z,10
2017-11-27T09:32:58.466Z,10
2017-11-27T09:33:11.588Z,5
2017-11-27T09:33:24.322Z,5
2017-11-27T09:33:37.482Z,5
2017-11-27T09:33:50.621Z,5
2017-11-27T09:34:03.287Z,5
2017-11-27T09:34:15.934Z,5
2017-11-27T09:34:28.574Z,5
2017-11-27T09:34:41.679Z,5
2017-11-27T09:34:54.851Z,5
2017-11-27T09:35:07.493Z,5
2017-11-27T09:35:20.601Z,5
2017-11-27T09:35:33.761Z,5
2017-11-27T09:35:46.512Z,5
2017-11-27T09:35:59.636Z,5
2017-11-27T09:36:12.741Z,5
2017-11-27T09:36:25.885Z,5
2017-11-27T09:36:39.025Z,5
2017-11-27T09:36:51.698Z,10
2017-11-27T09:37:04.818Z,10
2017-11-27T09:37:17.963Z,10
2017-11-27T09:37:31.120Z,10
2017-11-27T09:37:43.835Z,10
2017-11-27T09:37:56.991Z,10
2017-11-27T09:38:09.657Z,15
2017-11-27T09:38:22.771Z,15
2017-11-27T09:38:35.913Z,15
2017-11-27T09:38:49.048Z,15
2017-11-27T09:39:02.203Z,15
2017-11-27T09:39:15.331Z,15
2017-11-27T09:39:28.514Z,20
2017-11-27T09:39:41.682Z,20
2017-11-27T09:39:54.831Z,20
2017-11-27T09:40:06.998Z,25
2017-11-27T09:40:19.693Z,25
2017-11-27T09:40:32.830Z,25
2017-11-27T09:40:45.447Z,30
2017-11-27T09:40:58.619Z,30
2017-11-27T09:41:11.532Z,30
2017-11-27T09:41:24.668Z,30
2017-11-27T09:41:37.333Z,35
2017-11-27T09:41:49.903Z,35
2017-11-27T09:42:02.993Z,35
2017-11-27T09:42:15.671Z,35
2017-11-27T09:42:28.277Z,35
2017-11-27T09:42:40.878Z,30
2017-11-27T09:42:54.033Z,30
2017-11-27T09:43:07.168Z,30
2017-11-27T09:43:20.246Z,30
2017-11-27T09:43:33.434Z,30
2017-11-27T09:43:46.066Z,30
2017-11-27T09:43:59.194Z,25
2017-11-27T09:44:11.442Z,25
2017-11-27T09:44:24.115Z,25
2017-11-27T09:44:37.261Z,25
2017-11-27T09:44:50.430Z,25
2017-11-27T09:45:03.791Z,25
2017-11-27T09:45:16.928Z,25
2017-11-27T09:45:30.070Z,25
2017-11-27T09:45:43.203Z,25
2017-11-27T09:45:55.873Z,25
2017-11-27T09:46:08.496Z,25
2017-11-27T09:46:21.613Z,25
2017-11-27T09:46:34.707Z,30
2017-11-27T09:46:47.476Z,30
2017-11-27T09:47:00.660Z,30
2017-11-27T09:47:13.300Z,35
2017-11-27T09:47:25.974Z,40
2017-11-27T09:47:39.080Z,45
2017-11-27T09:47:51.732Z,45
2017-11-27T09:48:04.848Z,50
2017-11-27T09:48:17.992Z,50
2017-11-27T09:48:30.639Z,50
2017-11-27T09:48:43.837Z,50
2017-11-27T09:48:56.923Z,55
2017-11-27T09:49:10.043Z,55
2017-11-27T09:49:22.727Z,55
2017-11-27T09:49:35.838Z,55
2017-11-27T09:49:48.976Z,55
2017-11-27T09:50:02.133Z,55
2017-11-27T09:50:15.260Z,55
2017-11-27T09:50:28.381Z,55
2017-11-27T09:50:41.420Z,60
2017-11-27T09:50:54.542Z,60
2017-11-27T09:51:07.669Z,65
2017-11-27T09:51:20.790Z,70
2017-11-27T09:51:33.450Z,75
2017-11-27T09:51:46.619Z,80
2017-11-27T09:51:59.305Z,85
2017-11-27T09:52:11.977Z,85
2017-11-27T09:52:24.661Z,85
2017-11-27T09:52:37.806Z,80
2017-11-27T09:52:50.465Z,75
2017-11-27T09:53:03.093Z,75
2017-11-27T09:53:15.279Z,70
2017-11-27T09:53:28.453Z,70
2017-11-27T09:53:40.633Z,70
2017-11-27T09:53:53.747Z,70
2017-11-27T09:54:05.913Z,70
2017-11-27T09:54:19.092Z,70
2017-11-27T09:54:31.764Z,70
2017-11-27T09:54:44.419Z,70
2017-11-27T09:54:57.084Z,70
2017-11-27T09:55:10.216Z,75
2017-11-27T09:55:22.441Z,75
2017-11-27T09:55:35.578Z,80
2017-11-27T09:55:48.815Z,80
2017-11-27T09:56:01.956Z,80
2017-11-27T09:56:15.100Z,85
2017-11-27T09:56:28.213Z,85
2017-11-27T09:56:40.893Z,85
2017-11-27T09:56:54.059Z,90
2017-11-27T09:57:06.691Z,90
2017-11-27T09:57:19.815Z,95
2017-11-27T09:57:32.544Z,95
2017-11-27T09:57:45.173Z,95
2017-11-27T09:57:58.327Z,95
2017-11-27T09:58:11.458Z,95
2017-11-27T09:58:24.610Z,100
2017-11-27T09:58:36.768Z,100
2017-11-27T09:58:49.892Z,95
2017-11-27T09:59:03.008Z,95
2017-11-27T09:59:16.128Z,90
2017-11-27T09:59:28.761Z,90
2017-11-27T09:59:41.432Z,90
2017-11-27T09:59:53.588Z,85
2017-11-27T10:00:06.181Z,85
2017-11-27T10:00:19.377Z,85
2017-11-27T10:00:32.520Z,85
2017-11-27T10:00:45.113Z,80
2017-11-27T10:00:58.281Z,80
2017-11-27T10:01:11.401Z,75
2017-11-27T10:01:24.544Z,75
2017-11-27T10:01:37.655Z,75
2017-11-27T10:01:50.328Z,75
2017-11-27T10:02:03.446Z,75
2017-11-27T10:02:16.617Z,75
2017-11-27T10:02:29.751Z,75
2017-11-27T10:02:42.456Z,75
2017-11-27T10:02:55.081Z,75
2017-11-27T10:03:07.777Z,80
2017-11-27T10:03:20.413Z,80
2017-11-27T10:03:33.525Z,80
2017-11-27T10:03:46.136Z,85
2017-11-27T10:03:59.292Z,85
2017-11-27T10:04:12.500Z,80
2017-11-27T10:04:25.597Z,80
2017-11-27T10:04:38.723Z,80
2017-11-27T10:04:51.347Z,85
2017-11-27T10:05:03.930Z,85
2017-11-27T10:05:17.046Z,90
2017-11-27T10:05:29.234Z,90
2017-11-27T10:05:42.337Z,95
2017-11-27T10:05:55.761Z,100
2017-11-27T10:06:08.946Z,105
2017-11-27T10:06:21.629Z,110
2017-11-27T10:06:34.724Z,115
2017-11-27T10:06:47.853Z,120
2017-11-27T10:07:00.518Z,125
2017-11-27T10:07:13.642Z,125
2017-11-27T10:07:26.753Z,130
2017-11-27T10:07:39.464Z,130
2017-11-27T10:07:51.624Z,130
2017-11-27T10:08:04.304Z,130
2017-11-27T10:08:17.469Z,130
2017-11-27T10:08:30.067Z,130
2017-11-27T10:08:43.162Z,130
2017-11-27T10:08:55.839Z,130
2017-11-27T10:09:08.989Z,130
2017-11-27T10:09:21.639Z,135
2017-11-27T10:09:34.834Z,135
2017-11-27T10:09:47.480Z,145
2017-11-27T10:10:00.620Z,150
2017-11-27T10:10:13.305Z,155
2017-11-27T10:10:26.829Z,160
2017-11-27T10:10:39.964Z,160
2017-11-27T10:10:53.106Z,160
2017-11-27T10:11:06.275Z,160
2017-11-27T10:11:19.450Z,160
2017-11-27T10:11:32.559Z,155
2017-11-27T10:11:44.747Z,155
2017-11-27T10:11:57.852Z,155
2017-11-27T10:12:10.985Z,150
2017-11-27T10:12:24.081Z,145
2017-11-27T10:12:36.732Z,145
2017-11-27T10:12:49.383Z,145
2017-11-27T10:13:02.048Z,145
2017-11-27T10:13:15.147Z,145
2017-11-27T10:13:28.265Z,150
2017-11-27T10:13:40.936Z,150
2017-11-27T10:13:53.165Z,155
2017-11-27T10:14:05.801Z,160
2017-11-27T10:14:18.914Z,165
2017-11-27T10:14:32.024Z,165
2017-11-27T10:14:44.625Z,170
2017-11-27T10:14:57.780Z,170
2017-11-27T10:15:10.494Z,170
2017-11-27T10:15:23.146Z,165
2017-11-27T10:15:36.281Z,165
2017-11-27T10:15:48.953Z,160
2017-11-27T10:16:02.081Z,160
2017-11-27T10:16:15.206Z,155
2017-11-27T10:16:27.855Z,155
2017-11-27T10:16:41.007Z,150
2017-11-27T10:16:53.646Z,150
2017-11-27T10:17:06.260Z,145
2017-11-27T10:17:18.895Z,145
2017-11-27T10:17:31.555Z,145
2017-11-27T10:17:44.657Z,135
2017-11-27T10:17:57.309Z,130
2017-11-27T10:18:09.997Z,125
2017-11-27T10:18:23.158Z,120
2017-11-27T10:18:36.307Z,120
2017-11-27T10:18:49.414Z,120
2017-11-27T10:19:02.523Z,120
2017-11-27T10:19:15.184Z,120
2017-11-27T10:19:27.846Z,125
2017-11-27T10:19:40.968Z,125
2017-11-27T10:19:53.641Z,130
2017-11-27T10:20:06.827Z,130
2017-11-27T10:20:20.018Z,130
2017-11-27T10:20:32.639Z,130
2017-11-27T10:20:45.825Z,125
2017-11-27T10:20:59.144Z,125
2017-11-27T10:21:11.832Z,125
2017-11-27T10:21:25.001Z,120
2017-11-27T10:21:37.646Z,120
2017-11-27T10:21:50.822Z,120
2017-11-27T10:22:03.972Z,125
2017-11-27T10:22:17.093Z,125
2017-11-27T10:22:29.759Z,125
2017-11-27T10:22:42.393Z,125
2017-11-27T10:22:54.541Z,130
2017-11-27T10:23:07.154Z,130
2017-11-27T10:23:20.225Z,135
2017-11-27T10:23:33.343Z,140
2017-11-27T10:23:46.024Z,145
2017-11-27T10:23:59.211Z,150
2017-11-27T10:24:12.436Z,155
2017-11-27T10:24:25.080Z,155
2017-11-27T10:24:38.221Z,155
2017-11-27T10:24:50.929Z,155
2017-11-27T10:25:04.135Z,150
2017-11-27T10:25:17.306Z,145
2017-11-27T10:25:30.422Z,140
2017-11-27T10:25:43.030Z,140
2017-11-27T10:25:55.652Z,140
2017-11-27T10:26:07.376Z,145
2017-11-27T10:26:20.481Z,150
2017-11-27T10:26:33.631Z,155
2017-11-27T10:26:46.731Z,160
2017-11-27T10:26:59.344Z,165
2017-11-27T10:27:11.964Z,170
2017-11-27T10:27:25.080Z,175
2017-11-27T10:27:38.156Z,180
2017-11-27T10:27:51.307Z,180
2017-11-27T10:28:04.454Z,185
2017-11-27T10:28:17.065Z,190
2017-11-27T10:28:30.228Z,195
2017-11-27T10:28:42.938Z,205
2017-11-27T10:28:55.576Z,215
2017-11-27T10:29:08.248Z,225
2017-11-27T10:29:21.414Z,240
2017-11-27T10:29:34.514Z,265
2017-11-27T10:29:46.715Z,290
2017-11-27T10:29:59.881Z,315
2017-11-27T10:30:13.012Z,340
2017-11-27T10:30:26.189Z,385
2017-11-27T10:30:39.304Z,500
2017-11-27T10:30:52.423Z,530
2017-11-27T10:31:05.087Z,585
2017-11-27T10:31:17.766Z,665
2017-11-27T10:31:30.876Z,670
2017-11-27T10:31:43.514Z,700
2017-11-27T10:31:56.636Z,655
2017-11-27T10:32:09.788Z,620
2017-11-27T10:32:22.883Z,580
2017-11-27T10:32:36.025Z,555
2017-11-27T10:32:49.142Z,540
2017-11-27T10:33:01.778Z,560
2017-11-27T10:33:14.940Z,525
2017-11-27T10:33:28.016Z,480
2017-11-27T10:33:41.116Z,480
2017-11-27T10:33:53.733Z,525
2017-11-27T10:34:05.912Z,635
2017-11-27T10:34:19.050Z,525
2017-11-27T10:34:32.190Z,520
2017-11-27T10:34:45.307Z,480
2017-11-27T10:34:58.008Z,465
2017-11-27T10:35:10.656Z,460
2017-11-27T10:35:23.766Z,500
2017-11-27T10:35:36.930Z,455
2017-11-27T10:35:49.588Z,395
2017-11-27T10:36:03.447Z,350
2017-11-27T10:36:15.120Z,325
2017-11-27T10:36:27.771Z,300
2017-11-27T10:36:40.932Z,285
2017-11-27T10:36:54.123Z,275
2017-11-27T10:37:07.287Z,270
2017-11-27T10:37:19.446Z,270
2017-11-27T10:37:32.610Z,270
2017-11-27T10:37:45.710Z,275
2017-11-27T10:37:58.394Z,275
2017-11-27T10:38:11.508Z,275
2017-11-27T10:38:24.103Z,270
2017-11-27T10:38:36.724Z,265
2017-11-27T10:38:49.427Z,260
2017-11-27T10:39:02.622Z,250
2017-11-27T10:39:15.279Z,240
2017-11-27T10:39:27.944Z,230
2017-11-27T10:39:41.038Z,230
2017-11-27T10:39:54.132Z,235
2017-11-27T10:40:06.727Z,240
2017-11-27T10:40:19.403Z,245
2017-11-27T10:40:32.550Z,255
2017-11-27T10:40:45.257Z,265
2017-11-27T10:40:58.360Z,270
2017-11-27T10:41:11.538Z,275
2017-11-27T10:41:24.741Z,280
2017-11-27T10:41:37.864Z,285
2017-11-27T10:41:50.073Z,285
2017-11-27T10:42:02.722Z,285
2017-11-27T10:42:15.379Z,290
2017-11-27T10:42:28.040Z,300
2017-11-27T10:42:41.190Z,305
2017-11-27T10:42:54.371Z,320
2017-11-27T10:43:07.005Z,355
2017-11-27T10:43:20.162Z,390
2017-11-27T10:43:33.331Z,440
2017-11-27T10:43:48.018Z,495
2017-11-27T10:44:01.173Z,545
2017-11-27T10:44:14.327Z,565
2017-11-27T10:44:26.991Z,585
2017-11-27T10:44:39.645Z,580
2017-11-27T10:44:52.746Z,575
2017-11-27T10:45:05.377Z,560
2017-11-27T10:45:18.530Z,550
2017-11-27T10:45:31.666Z,545
2017-11-27T10:45:44.789Z,540
2017-11-27T10:45:57.924Z,540
2017-11-27T10:46:11.056Z,535
2017-11-27T10:46:24.119Z,535
2017-11-27T10:46:37.245Z,535
2017-11-27T10:46:50.399Z,545
2017-11-27T10:47:03.485Z,565
2017-11-27T10:47:16.661Z,590
2017-11-27T10:47:29.772Z,630
2017-11-27T10:47:42.942Z,855
2017-11-27T10:47:56.020Z,1670
2017-11-27T10:48:08.646Z,865
2017-11-27T10:48:21.833Z,680
2017-11-27T10:48:34.433Z,660
2017-11-27T10:48:46.111Z,620
2017-11-27T10:48:58.797Z,590
2017-11-27T10:49:11.908Z,575
2017-11-27T10:49:25.077Z,570
2017-11-27T10:49:38.226Z,555
2017-11-27T10:49:51.379Z,545
2017-11-27T10:50:04.503Z,540
2017-11-27T10:50:17.577Z,535
2017-11-27T10:50:30.242Z,530
2017-11-27T10:50:42.428Z,540
2017-11-27T10:50:55.582Z,540
2017-11-27T10:51:09.211Z,555
2017-11-27T10:51:22.312Z,660
2017-11-27T10:51:35.435Z,890
2017-11-27T10:51:48.524Z,685
2017-11-27T10:52:01.685Z,665
2017-11-27T10:52:14.838Z,650
2017-11-27T10:52:27.486Z,745
2017-11-27T10:52:40.635Z,590
2017-11-27T10:52:53.793Z,595
2017-11-27T10:53:06.458Z,720
2017-11-27T10:53:19.604Z,650
2017-11-27T10:53:32.723Z,695
2017-11-27T10:53:45.908Z,650
2017-11-27T10:53:59.239Z,695
2017-11-27T10:54:12.390Z,1895
2017-11-27T10:54:25.061Z,1545
2017-11-27T10:54:38.210Z,1735
2017-11-27T10:54:50.900Z,1220
2017-11-27T10:55:04.058Z,1915
2017-11-27T10:55:17.402Z,1850
2017-11-27T10:55:30.057Z,1425
2017-11-27T10:55:42.260Z,900
2017-11-27T10:55:55.347Z,840
2017-11-27T10:56:07.992Z,845
2017-11-27T10:56:21.128Z,895
2017-11-27T10:56:34.228Z,1050
2017-11-27T10:56:47.357Z,1115
2017-11-27T10:57:00.498Z,930
2017-11-27T10:57:13.640Z,1150
2017-11-27T10:57:26.300Z,875
2017-11-27T10:57:39.457Z,880
2017-11-27T10:57:52.679Z,1370
2017-11-27T10:58:04.889Z,1010
2017-11-27T10:58:18.078Z,915
2017-11-27T10:58:31.238Z,895
2017-11-27T10:58:44.355Z,915
2017-11-27T10:58:57.490Z,1175
2017-11-27T10:59:10.702Z,1620
2017-11-27T10:59:22.849Z,1465
2017-11-27T10:59:35.463Z,905
2017-11-27T10:59:48.628Z,880
2017-11-27T11:00:01.762Z,900
2017-11-27T11:00:14.819Z,815
2017-11-27T11:00:28.054Z,770
2017-11-27T11:00:41.179Z,755
2017-11-27T11:00:53.807Z,745
2017-11-27T11:01:06.525Z,785
2017-11-27T11:01:19.242Z,920
2017-11-27T11:01:31.857Z,1010
2017-11-27T11:01:44.463Z,895
2017-11-27T11:01:57.629Z,850
2017-11-27T11:02:10.782Z,780
2017-11-27T11:02:23.908Z,730
2017-11-27T11:02:36.575Z,700
2017-11-27T11:02:49.291Z,670
2017-11-27T11:03:02.433Z,650
2017-11-27T11:03:14.648Z,635
2017-11-27T11:03:27.740Z,625
2017-11-27T11:03:40.834Z,620
2017-11-27T11:03:53.485Z,610
2017-11-27T11:04:06.627Z,605
2017-11-27T11:04:19.735Z,600
2017-11-27T11:04:32.440Z,600
2017-11-27T11:04:45.583Z,600
2017-11-27T11:04:58.241Z,620
2017-11-27T11:05:11.367Z,660
2017-11-27T11:05:24.543Z,660
2017-11-27T11:05:37.694Z,665
2017-11-27T11:05:50.807Z,670
2017-11-27T11:06:03.476Z,670
2017-11-27T11:06:16.821Z,670
2017-11-27T11:06:29.968Z,675
2017-11-27T11:06:43.051Z,670
2017-11-27T11:06:55.680Z,670
2017-11-27T11:07:08.857Z,660
2017-11-27T11:07:21.962Z,645
2017-11-27T11:07:34.571Z,630
2017-11-27T11:07:47.223Z,620
2017-11-27T11:07:59.921Z,600
2017-11-27T11:08:12.618Z,585
2017-11-27T11:08:24.776Z,570
2017-11-27T11:08:37.403Z,560
2017-11-27T11:08:50.060Z,545
2017-11-27T11:09:03.233Z,535
2017-11-27T11:09:15.894Z,525
2017-11-27T11:09:28.543Z,520
2017-11-27T11:09:41.190Z,510
2017-11-27T11:09:54.359Z,500
2017-11-27T11:10:07.502Z,495
2017-11-27T11:10:20.092Z,490
2017-11-27T11:10:32.800Z,490
2017-11-27T11:10:44.945Z,490
2017-11-27T11:10:57.589Z,490
2017-11-27T11:11:10.725Z,495
2017-11-27T11:11:23.426Z,495
2017-11-27T11:11:35.092Z,485
2017-11-27T11:11:48.247Z,475
2017-11-27T11:12:01.380Z,465
2017-11-27T11:12:14.049Z,460
2017-11-27T11:12:26.230Z,505
2017-11-27T11:12:39.360Z,460
2017-11-27T11:12:51.053Z,450
2017-11-27T11:13:04.169Z,445
2017-11-27T11:13:16.372Z,430
2017-11-27T11:13:29.042Z,425
2017-11-27T11:13:42.194Z,420
2017-11-27T11:13:54.863Z,420
2017-11-27T11:14:07.997Z,450
2017-11-27T11:14:20.657Z,440
2017-11-27T11:14:33.759Z,440
2017-11-27T11:14:46.387Z,445
2017-11-27T11:14:59.451Z,460
2017-11-27T11:15:12.135Z,465
2017-11-27T11:15:25.259Z,470
2017-11-27T11:15:38.371Z,490
2017-11-27T11:15:51.490Z,465
2017-11-27T11:16:04.174Z,465
2017-11-27T11:16:17.299Z,460
2017-11-27T11:16:30.456Z,465
2017-11-27T11:16:43.110Z,465
2017-11-27T11:16:55.755Z,470
2017-11-27T11:17:08.912Z,540
2017-11-27T11:17:22.056Z,480
2017-11-27T11:17:35.186Z,475
2017-11-27T11:17:47.874Z,480
2017-11-27T11:18:00.984Z,490
2017-11-27T11:18:14.107Z,495
2017-11-27T11:18:26.782Z,515
2017-11-27T11:18:39.938Z,520
2017-11-27T11:18:52.127Z,530
2017-11-27T11:19:05.357Z,545
2017-11-27T11:19:17.535Z,555
2017-11-27T11:19:30.884Z,585
2017-11-27T11:19:44.008Z,590
2017-11-27T11:19:57.114Z,615
2017-11-27T11:20:09.301Z,635
2017-11-27T11:20:22.400Z,680
2017-11-27T11:20:34.612Z,745
2017-11-27T11:20:47.781Z,860
2017-11-27T11:21:00.901Z,865
2017-11-27T11:21:14.022Z,1370
2017-11-27T11:21:27.681Z,865
2017-11-27T11:21:40.877Z,860
2017-11-27T11:21:53.496Z,840
2017-11-27T11:22:06.120Z,775
2017-11-27T11:22:18.769Z,855
2017-11-27T11:22:31.490Z,745
2017-11-27T11:22:43.735Z,845
2017-11-27T11:22:56.403Z,700
2017-11-27T11:23:09.523Z,665
2017-11-27T11:23:22.655Z,635
2017-11-27T11:23:35.316Z,615
2017-11-27T11:23:48.540Z,580
2017-11-27T11:24:01.666Z,565
2017-11-27T11:24:14.326Z,540
2017-11-27T11:24:27.528Z,525
2017-11-27T11:24:40.668Z,505
2017-11-27T11:24:53.255Z,495
2017-11-27T11:25:06.424Z,480
2017-11-27T11:25:19.555Z,465
2017-11-27T11:25:32.594Z,445
2017-11-27T11:25:45.229Z,435
2017-11-27T11:25:58.309Z,420
2017-11-27T11:26:11.445Z,405
2017-11-27T11:26:24.081Z,395
2017-11-27T11:26:36.652Z,380
2017-11-27T11:26:49.322Z,370
2017-11-27T11:27:02.456Z,365
2017-11-27T11:27:15.626Z,360
2017-11-27T11:27:28.793Z,355
2017-11-27T11:27:41.910Z,355
2017-11-27T11:27:55.051Z,355
2017-11-27T11:28:08.187Z,355
2017-11-27T11:28:21.301Z,355
2017-11-27T11:28:34.460Z,355
2017-11-27T11:28:47.489Z,355
2017-11-27T11:29:00.582Z,355
2017-11-27T11:29:12.763Z,355
2017-11-27T11:29:25.919Z,355
2017-11-27T11:29:39.053Z,360
2017-11-27T11:29:51.754Z,360
2017-11-27T11:30:04.976Z,360
2017-11-27T11:30:18.129Z,360
2017-11-27T11:30:31.315Z,370
2017-11-27T11:30:43.460Z,375
2017-11-27T11:30:56.192Z,370
2017-11-27T11:31:08.868Z,375
2017-11-27T11:31:21.627Z,375
2017-11-27T11:31:34.273Z,375
2017-11-27T11:31:46.962Z,380
2017-11-27T11:32:00.088Z,380
2017-11-27T11:32:13.210Z,380
2017-11-27T11:32:25.385Z,375
2017-11-27T11:32:38.063Z,375
2017-11-27T11:32:50.759Z,375
2017-11-27T11:33:03.424Z,375
2017-11-27T11:33:16.094Z,375
2017-11-27T11:33:28.285Z,375
2017-11-27T11:33:41.427Z,370
2017-11-27T11:33:54.118Z,370
2017-11-27T11:34:07.301Z,370
2017-11-27T11:34:20.037Z,365
2017-11-27T11:34:33.156Z,370
2017-11-27T11:34:45.848Z,370
2017-11-27T11:34:58.993Z,375
2017-11-27T11:35:12.048Z,375
2017-11-27T11:35:25.184Z,375
2017-11-27T11:35:38.322Z,375
2017-11-27T11:35:50.975Z,370
2017-11-27T11:36:04.076Z,360
2017-11-27T11:36:16.722Z,360
2017-11-27T11:36:30.570Z,355
2017-11-27T11:36:43.163Z,350
2017-11-27T11:36:56.266Z,345
2017-11-27T11:37:09.452Z,340
2017-11-27T11:37:22.585Z,340
2017-11-27T11:37:35.685Z,340
2017-11-27T11:37:48.855Z,340
2017-11-27T11:38:02.052Z,340
2017-11-27T11:38:14.725Z,340
2017-11-27T11:38:27.828Z,340
2017-11-27T11:38:40.496Z,340
2017-11-27T11:38:53.605Z,340
2017-11-27T11:39:06.777Z,340
2017-11-27T11:39:19.466Z,340
2017-11-27T11:39:32.627Z,335
2017-11-27T11:39:45.854Z,330
2017-11-27T11:39:58.451Z,320
2017-11-27T11:40:11.509Z,315
2017-11-27T11:40:26.924Z,305
2017-11-27T11:40:40.039Z,300
2017-11-27T11:40:52.681Z,295
2017-11-27T11:41:05.334Z,290
2017-11-27T11:41:18.073Z,290
2017-11-27T11:41:30.701Z,290
2017-11-27T11:41:43.911Z,300
2017-11-27T11:41:56.534Z,305
2017-11-27T11:42:09.233Z,315
2017-11-27T11:42:22.312Z,320
2017-11-27T11:42:34.944Z,320
2017-11-27T11:42:48.123Z,320
2017-11-27T11:43:01.263Z,315
2017-11-27T11:43:14.407Z,305
2017-11-27T11:43:27.545Z,300
2017-11-27T11:43:40.692Z,295
2017-11-27T11:43:53.808Z,290
2017-11-27T11:44:06.928Z,285
2017-11-27T11:44:20.024Z,280
2017-11-27T11:44:33.145Z,275
2017-11-27T11:44:46.274Z,275
2017-11-27T11:44:59.483Z,270
2017-11-27T11:45:12.121Z,270
2017-11-27T11:45:25.257Z,270
2017-11-27T11:45:37.948Z,265
2017-11-27T11:45:51.087Z,265
2017-11-27T11:46:04.192Z,270
2017-11-27T11:46:17.371Z,275
2017-11-27T11:46:30.508Z,280
2017-11-27T11:46:43.181Z,290
2017-11-27T11:46:55.830Z,295
2017-11-27T11:47:09.000Z,295
2017-11-27T11:47:21.621Z,300
2017-11-27T11:47:34.745Z,300
2017-11-27T11:47:47.355Z,300
2017-11-27T11:48:00.493Z,300
2017-11-27T11:48:13.642Z,305
2017-11-27T11:48:26.790Z,305
2017-11-27T11:48:39.437Z,310
2017-11-27T11:48:52.579Z,315
2017-11-27T11:49:04.751Z,315
2017-11-27T11:49:17.868Z,330
2017-11-27T11:49:31.055Z,340
2017-11-27T11:49:43.687Z,345
2017-11-27T11:49:56.782Z,350
2017-11-27T11:50:09.928Z,355
2017-11-27T11:50:23.107Z,360
2017-11-27T11:50:36.269Z,365
2017-11-27T11:50:48.886Z,375
2017-11-27T11:51:02.013Z,385
2017-11-27T11:51:14.669Z,395
2017-11-27T11:51:27.347Z,395
2017-11-27T11:51:40.972Z,405
2017-11-27T11:51:54.136Z,420
2017-11-27T11:52:07.228Z,435
2017-11-27T11:52:20.309Z,450
2017-11-27T11:52:33.468Z,465
2017-11-27T11:52:46.150Z,470
2017-11-27T11:52:59.269Z,480
2017-11-27T11:53:12.384Z,490
2017-11-27T11:53:25.497Z,490
2017-11-27T11:53:38.617Z,480
2017-11-27T11:53:51.350Z,475
2017-11-27T11:54:04.009Z,455
2017-11-27T11:54:17.197Z,450
2017-11-27T11:54:30.375Z,455
2017-11-27T11:54:43.546Z,465
2017-11-27T11:54:56.641Z,470
2017-11-27T11:55:08.412Z,485
2017-11-27T11:55:21.050Z,495
2017-11-27T11:55:34.210Z,510
2017-11-27T11:55:47.366Z,530
2017-11-27T11:56:00.484Z,545
2017-11-27T11:56:13.608Z,575
2017-11-27T11:56:26.745Z,595
2017-11-27T11:56:39.498Z,600
2017-11-27T11:56:52.629Z,595
2017-11-27T11:57:05.744Z,580
2017-11-27T11:57:18.825Z,580
2017-11-27T11:57:31.520Z,590
2017-11-27T11:57:44.652Z,595
2017-11-27T11:57:57.735Z,620
2017-11-27T11:58:10.901Z,945
2017-11-27T11:58:24.075Z,1240
2017-11-27T11:58:37.268Z,1635
2017-11-27T11:58:50.381Z,1600
2017-11-27T11:59:03.491Z,1565
2017-11-27T11:59:16.113Z,1335
2017-11-27T11:59:29.221Z,1275
2017-11-27T11:59:42.340Z,1720
2017-11-27T11:59:55.485Z,1540
2017-11-27T12:00:08.620Z,1660
2017-11-27T12:00:21.755Z,1725
2017-11-27T12:00:34.830Z,1725
2017-11-27T12:00:47.483Z,1735
2017-11-27T12:01:00.625Z,1750
2017-11-27T12:01:13.893Z,1755
2017-11-27T12:01:26.571Z,1760
2017-11-27T12:01:38.754Z,1755
2017-11-27T12:01:51.400Z,1760
2017-11-27T12:02:04.514Z,1800
2017-11-27T12:02:17.666Z,1810
2017-11-27T12:02:30.333Z,1810
2017-11-27T12:02:43.010Z,1810
2017-11-27T12:02:56.142Z,1790
2017-11-27T12:03:09.321Z,1780
2017-11-27T12:03:22.486Z,1765
2017-11-27T12:03:34.668Z,1770
2017-11-27T12:03:46.849Z,1750
2017-11-27T12:04:00.034Z,1730
2017-11-27T12:04:12.678Z,1715
2017-11-27T12:04:25.793Z,1700
2017-11-27T12:04:38.945Z,1690
2017-11-27T12:04:51.528Z,1715
2017-11-27T12:05:04.637Z,1695
2017-11-27T12:05:17.777Z,1685
2017-11-27T12:05:29.885Z,1790
2017-11-27T12:05:43.015Z,1800
2017-11-27T12:05:56.139Z,1830
2017-11-27T12:06:09.247Z,1835
2017-11-27T12:06:21.890Z,1645
2017-11-27T12:06:34.076Z,1655
2017-11-27T12:06:47.449Z,1775
2017-11-27T12:07:00.597Z,1875
2017-11-27T12:07:13.749Z,1270
2017-11-27T12:07:26.944Z,1100
2017-11-27T12:07:39.157Z,1070
2017-11-27T12:07:52.309Z,1195
2017-11-27T12:08:05.420Z,1230
2017-11-27T12:08:18.075Z,1190
2017-11-27T12:08:31.205Z,1045
2017-11-27T12:08:43.387Z,915
2017-11-27T12:08:56.551Z,875
2017-11-27T12:09:09.697Z,890
2017-11-27T12:09:22.863Z,1055
2017-11-27T12:09:35.552Z,1525
2017-11-27T12:09:48.686Z,1700
2017-11-27T12:10:01.884Z,1585
2017-11-27T12:10:14.538Z,1650
2017-11-27T12:10:27.643Z,1145
2017-11-27T12:10:40.863Z,1385
2017-11-27T12:10:53.054Z,900
2017-11-27T12:11:06.127Z,780
2017-11-27T12:11:18.767Z,715
2017-11-27T12:11:31.850Z,670
2017-11-27T12:11:45.039Z,655
2017-11-27T12:11:57.215Z,635
2017-11-27T12:12:10.348Z,620
2017-11-27T12:12:23.467Z,610
2017-11-27T12:12:36.616Z,610
2017-11-27T12:12:49.278Z,650
2017-11-27T12:13:02.397Z,855
2017-11-27T12:13:15.512Z,750
2017-11-27T12:13:28.153Z,720
2017-11-27T12:13:40.819Z,680
2017-11-27T12:13:53.434Z,655
2017-11-27T12:14:06.555Z,715
2017-11-27T12:14:19.227Z,685
2017-11-27T12:14:32.381Z,705
2017-11-27T12:14:45.512Z,725
2017-11-27T12:14:58.612Z,725
2017-11-27T12:15:10.840Z,700
2017-11-27T12:15:23.947Z,715
2017-11-27T12:15:37.110Z,740
2017-11-27T12:15:49.298Z,770
2017-11-27T12:16:01.973Z,720
2017-11-27T12:16:15.133Z,680
2017-11-27T12:16:28.267Z,650
2017-11-27T12:16:41.420Z,650
2017-11-27T12:16:54.586Z,710
2017-11-27T12:17:07.788Z,1050
2017-11-27T12:17:20.471Z,1475
2017-11-27T12:17:33.079Z,1105
2017-11-27T12:17:45.763Z,1455
2017-11-27T12:17:58.831Z,880
2017-11-27T12:18:11.489Z,815
2017-11-27T12:18:24.610Z,775
2017-11-27T12:18:36.757Z,755
2017-11-27T12:18:49.825Z,805
2017-11-27T12:19:02.975Z,680
2017-11-27T12:19:16.144Z,645
2017-11-27T12:19:29.261Z,640
2017-11-27T12:19:41.897Z,655
2017-11-27T12:19:55.061Z,655
2017-11-27T12:20:08.210Z,675
2017-11-27T12:20:21.375Z,700
2017-11-27T12:20:34.037Z,740
2017-11-27T12:20:46.705Z,1110
2017-11-27T12:20:59.373Z,1240
2017-11-27T12:21:12.540Z,895
2017-11-27T12:21:25.230Z,845
2017-11-27T12:21:38.349Z,835
2017-11-27T12:21:51.508Z,810